Time;durP1;ratioP1;P1;durP2;ratioP2;P2;SDS_P1;SDS_P2;PMS_P1;PMS_P2;Temp;Humidity;BMP_temperature;BMP_pressure;BME280_temperature;BME280_humidity;BME280_pressure;Samples;Min_cycle;Max_cycle;Signal;HPM_P1;HPM_P2
2022/02/08 00:00:05;;;;;;;;;;;;;;;1.54;83.35;99654.16;5055063;28;20080;-63
2022/02/08 00:02:34;;;;;;;;;;;;;;;1.52;82.88;99650.84;5075688;28;19958;-62
2022/02/08 00:05:00;;;;;;;;;;;;;;;1.44;82.85;99650.66;5075456;28;19916;-62
2022/02/08 00:07:30;;;;;;;;;;;;;;;1.31;83.30;99659.72;5075481;28;19916;-65
2022/02/08 00:09:55;;;;;;;;;;;;;;;1.26;83.55;99661.91;5075271;28;19994;-63
2022/02/08 00:12:20;;;;;;;;;;;;;;;1.18;83.80;99665.19;5057347;28;20414;-63
2022/02/08 00:14:47;;;;;;;;;;;;;;;1.17;83.85;99666.16;5075315;28;20390;-63
2022/02/08 00:17:13;;;;;;;;;;;;;;;1.17;83.95;99674.84;5075053;28;19916;-63
2022/02/08 00:19:38;;;;;;;;;;;;;;;1.20;83.99;99673.75;5075053;28;20375;-63
2022/02/08 00:22:04;;;;;;;;;;;;;;;1.17;83.79;99677.47;5074858;28;20041;-63
2022/02/08 00:24:29;;;;;;;;;;;;;;;1.17;83.65;99684.50;5074901;28;19962;-64
2022/02/08 00:26:55;;;;;;;;;;;;;;;1.25;83.82;99692.56;5075306;28;19916;-63
2022/02/08 00:29:21;;;;;;;;;;;;;;;1.32;83.80;99691.06;5074975;28;19916;-62
2022/02/08 00:31:47;;;;;;;;;;;;;;;1.30;83.13;99689.53;5074749;28;19975;-63
2022/02/08 00:34:13;;;;;;;;;;;;;;;1.27;83.30;99690.63;5056681;28;19971;-62
2022/02/08 00:36:39;;;;;;;;;;;;;;;1.26;83.68;99688.97;5053197;28;20280;-62
2022/02/08 00:39:07;;;;;;;;;;;;;;;1.22;83.44;99695.44;5070175;28;19923;-64
2022/02/08 00:41:33;;;;;;;;;;;;;;;1.19;83.41;99704.41;5074979;28;19921;-63
2022/02/08 00:44:04;;;;;;;;;;;;;;;1.23;83.97;99694.47;5075132;28;19916;-62
2022/02/08 00:46:46;;;;;;;;;;;;;;;1.20;83.53;99705.22;5074794;28;19923;-63
2022/02/08 00:49:12;;;;;;;;;;;;;;;1.26;83.65;99714.38;5074454;28;20247;-62
2022/02/08 00:51:50;;;;;;;;;;;;;;;1.22;83.19;99719.03;5056653;28;19916;-63
2022/02/08 00:54:17;;;;;;;;;;;;;;;1.18;83.53;99718.47;5074646;28;20437;-63
2022/02/08 00:56:42;;;;;;;;;;;;;;;1.20;83.40;99727.03;5074373;28;20406;-63
2022/02/08 00:59:08;;;;;;;;;;;;;;;1.23;83.59;99736.44;5074341;28;19916;-64
2022/02/08 01:01:36;;;;;;;;;;;;;;;1.25;83.58;99734.50;5074119;28;19920;-63
2022/02/08 01:04:03;;;;;;;;;;;;;;;1.14;83.82;99734.56;5074523;28;20003;-63
2022/02/08 01:06:28;;;;;;;;;;;;;;;1.02;84.10;99732.97;5074222;28;19916;-64
2022/02/08 01:09:05;;;;;;;;;;;;;;;1.07;84.21;99736.88;5073974;28;19923;-63
2022/02/08 01:11:31;;;;;;;;;;;;;;;1.17;84.19;99731.72;5074091;28;19916;-62
2022/02/08 01:13:56;;;;;;;;;;;;;;;1.14;83.57;99742.44;5056077;28;19920;-65
2022/02/08 01:16:21;;;;;;;;;;;;;;;1.10;83.87;99746.25;5073951;28;19978;-61
2022/02/08 01:18:49;;;;;;;;;;;;;;;1.08;83.89;99749.03;5074084;28;19931;-64
2022/02/08 01:21:14;;;;;;;;;;;;;;;1.07;84.14;99743.91;5073699;28;19924;-62
2022/02/08 01:23:40;;;;;;;;;;;;;;;1.02;83.98;99748.69;5055870;28;19916;-66
2022/02/08 01:26:12;;;;;;;;;;;;;;;1.01;83.99;99741.78;5073735;28;20022;-64
2022/02/08 01:28:47;;;;;;;;;;;;;;;0.97;84.31;99743.00;5073875;28;19916;-63
2022/02/08 01:31:15;;;;;;;;;;;;;;;0.92;85.02;99736.34;5073996;28;19916;-65
2022/02/08 01:38:54;;;;;;;;;;;;;;;1.01;85.06;99760.16;5074285;28;20033;-64
2022/02/08 01:49:13;;;;;;;;;;;;;;;1.33;84.49;99760.09;5073577;28;20011;-63
2022/02/08 01:51:38;;;;;;;;;;;;;;;1.39;84.08;99768.28;5065256;28;19916;-63
2022/02/08 01:54:04;;;;;;;;;;;;;;;1.42;83.88;99769.81;5073817;28;19924;-62
2022/02/08 01:56:30;;;;;;;;;;;;;;;1.40;83.48;99756.81;5073615;28;20358;-63
2022/02/08 01:58:56;;;;;;;;;;;;;;;1.35;83.37;99766.88;5073242;28;19916;-62
2022/02/08 02:01:22;;;;;;;;;;;;;;;1.26;83.66;99775.53;5055286;28;20371;-64
2022/02/08 02:03:47;;;;;;;;;;;;;;;1.22;83.81;99772.31;5073114;28;19920;-62
2022/02/08 02:06:13;;;;;;;;;;;;;;;1.19;84.40;99771.75;5073326;28;19923;-63
2022/02/08 02:08:38;;;;;;;;;;;;;;;1.25;84.09;99771.25;5073901;28;20003;-64
2022/02/08 02:11:04;;;;;;;;;;;;;;;1.31;83.97;99780.38;5071734;28;19916;-63
2022/02/08 02:16:56;;;;;;;;;;;;;;;1.30;84.14;99778.72;5012182;28;19920;-62
2022/02/08 02:19:12;;;;;;;;;;;;;;;1.39;84.05;99778.78;5072643;28;19916;-63
2022/02/08 02:21:38;;;;;;;;;;;;;;;1.46;84.23;99790.44;5072972;28;20041;-62
2022/02/08 02:24:03;;;;;;;;;;;;;;;1.50;83.84;99791.84;5072408;28;19916;-64
2022/02/08 02:26:28;;;;;;;;;;;;;;;1.38;83.52;99794.66;5072844;28;20303;-64
2022/02/08 02:28:54;;;;;;;;;;;;;;;1.37;83.70;99795.59;5072773;28;20006;-63
2022/02/08 02:31:20;;;;;;;;;;;;;;;1.44;83.57;99797.59;5054677;28;19966;-63
2022/02/08 02:33:47;;;;;;;;;;;;;;;1.44;83.14;99802.81;5072754;28;19926;-62
2022/02/08 02:36:13;;;;;;;;;;;;;;;1.37;83.27;99806.09;5072744;28;19943;-63
2022/02/08 02:38:39;;;;;;;;;;;;;;;1.27;83.42;99810.44;5072920;28;19920;-63
2022/02/08 02:41:05;;;;;;;;;;;;;;;1.22;83.78;99814.28;5055178;28;19923;-61
2022/02/08 02:43:31;;;;;;;;;;;;;;;1.33;84.13;99820.44;5072435;28;19916;-62
2022/02/08 02:45:59;;;;;;;;;;;;;;;1.42;83.61;99823.13;5072153;28;19924;-64
2022/02/08 02:48:25;;;;;;;;;;;;;;;1.50;83.42;99819.88;5072670;28;19916;-62
2022/02/08 02:50:53;;;;;;;;;;;;;;;1.50;83.75;99818.09;5072792;28;19924;-65
2022/02/08 02:53:18;;;;;;;;;;;;;;;1.43;83.08;99826.56;5072515;28;19916;-62
2022/02/08 02:55:44;;;;;;;;;;;;;;;1.32;83.38;99829.25;5072867;28;19923;-62
2022/02/08 02:58:10;;;;;;;;;;;;;;;1.31;83.61;99833.69;5073294;28;20359;-59
2022/02/08 03:00:39;;;;;;;;;;;;;;;1.35;83.86;99835.09;5073044;28;20035;-62
2022/02/08 03:06:07;;;;;;;;;;;;;;;1.21;84.08;99838.03;5072513;28;19920;-63
2022/02/08 03:19:32;;;;;;;;;;;;;;;1.10;84.29;99845.91;5072384;28;19923;-61
2022/02/08 03:21:57;;;;;;;;;;;;;;;1.11;84.75;99842.34;5072368;28;19916;-63
2022/02/08 03:24:23;;;;;;;;;;;;;;;1.15;84.82;99839.31;5072384;28;19985;-61
2022/02/08 03:26:48;;;;;;;;;;;;;;;1.22;84.64;99839.69;5072279;28;20415;-63
2022/02/08 03:29:13;;;;;;;;;;;;;;;1.31;84.54;99844.16;5072061;28;19916;-62
2022/02/08 03:31:38;;;;;;;;;;;;;;;1.42;84.43;99838.84;5071919;28;19923;-62
2022/02/08 03:34:04;;;;;;;;;;;;;;;1.49;84.30;99840.03;5072032;28;20267;-62
2022/02/08 03:36:31;;;;;;;;;;;;;;;1.60;83.81;99849.63;5075844;28;19966;-62
2022/02/08 03:39:41;;;;;;;;;;;;;;;1.63;83.53;99849.38;5076123;28;20015;-62
2022/02/08 03:41:52;;;;;;;;;;;;;;;1.69;83.54;99848.84;5057569;28;19916;-63
2022/02/08 03:44:21;;;;;;;;;;;;;;;1.67;83.40;99849.94;5075803;28;20475;-63
2022/02/08 03:46:47;;;;;;;;;;;;;;;1.68;82.95;99848.97;5075871;28;19993;-63
2022/02/08 03:49:13;;;;;;;;;;;;;;;1.53;82.77;99853.72;5075915;28;20371;-63
2022/02/08 03:51:58;;;;;;;;;;;;;;;1.43;83.08;99858.88;5075709;28;19923;-63
2022/02/08 03:54:24;;;;;;;;;;;;;;;1.36;83.46;99851.66;5076090;28;20392;-62
2022/02/08 03:56:49;;;;;;;;;;;;;;;1.24;84.01;99856.13;5075433;28;19952;-64
2022/02/08 03:59:15;;;;;;;;;;;;;;;1.23;83.86;99855.28;5075544;28;20019;-63
2022/02/08 04:06:43;;;;;;;;;;;;;;;1.41;84.14;99866.06;5067425;28;19923;-65
2022/02/08 04:09:09;;;;;;;;;;;;;;;1.46;84.05;99869.16;5075195;28;19969;-67
2022/02/08 04:11:39;;;;;;;;;;;;;;;1.45;83.48;99875.38;5057890;28;19916;-67
2022/02/08 04:14:26;;;;;;;;;;;;;;;1.41;83.25;99873.94;5076643;28;20414;-67
2022/02/08 04:16:54;;;;;;;;;;;;;;;1.36;83.54;99873.47;5068680;28;19916;-69
2022/02/08 04:19:29;;;;;;;;;;;;;;;1.34;83.79;99875.38;5074930;28;20295;-62
2022/02/08 04:38:38;;;;;;;;;;;;;;;1.57;83.30;99897.13;5064448;28;20433;-63
2022/02/08 04:41:08;;;;;;;;;;;;;;;1.60;83.24;99896.88;5057244;28;19961;-63
2022/02/08 04:43:49;;;;;;;;;;;;;;;1.60;83.20;99898.66;5074937;28;19920;-63
2022/02/08 04:48:56;;;;;;;;;;;;;;;1.63;82.82;99908.91;5074635;28;20387;-63
2022/02/08 04:56:47;;;;;;;;;;;;;;;1.69;83.07;99911.84;5075105;28;20008;-64
2022/02/08 05:45:26;;;;;;;;;;;;;;;1.47;83.28;99948.72;5025909;28;19924;-64
2022/02/08 05:47:54;;;;;;;;;;;;;;;1.46;83.56;99950.50;5054532;28;20447;-68
2022/02/08 05:53:27;;;;;;;;;;;;;;;1.49;83.24;99950.25;5053072;28;19955;-69
2022/02/08 05:55:36;;;;;;;;;;;;;;;1.49;83.41;99962.53;5034674;28;19927;-68
2022/02/08 05:58:02;;;;;;;;;;;;;;;1.49;83.23;99960.75;5052556;28;19916;-68
2022/02/08 06:00:28;;;;;;;;;;;;;;;1.51;82.99;99950.94;5060317;28;20283;-70
2022/02/08 06:02:55;;;;;;;;;;;;;;;1.51;83.23;99960.63;5062575;28;19920;-70
2022/02/08 06:05:24;;;;;;;;;;;;;;;1.48;83.33;99961.69;5043987;28;19916;-69
2022/02/08 06:07:49;;;;;;;;;;;;;;;1.43;83.55;99963.00;5065479;28;19928;-69
2022/02/08 06:10:16;;;;;;;;;;;;;;;1.38;83.94;99960.75;5046076;28;19917;-69
2022/02/08 06:12:42;;;;;;;;;;;;;;;1.33;84.12;99967.34;5073058;28;19978;-72
2022/02/08 06:15:10;;;;;;;;;;;;;;;1.27;83.99;99966.03;5072566;28;19959;-75
2022/02/08 06:17:38;;;;;;;;;;;;;;;1.22;84.27;99970.81;5075651;28;19931;-73
2022/02/08 06:20:06;;;;;;;;;;;;;;;1.18;84.51;99966.78;5071448;28;19920;-72
2022/02/08 06:22:32;;;;;;;;;;;;;;;1.19;84.20;99961.41;5072634;28;19974;-70
2022/02/08 06:24:57;;;;;;;;;;;;;;;1.21;84.50;99962.13;5073297;28;19916;-71
2022/02/08 06:27:29;;;;;;;;;;;;;;;1.22;84.04;99957.72;5054465;28;19916;-71
2022/02/08 06:29:54;;;;;;;;;;;;;;;1.26;83.77;99964.38;5052050;28;19916;-72
2022/02/08 06:32:20;;;;;;;;;;;;;;;1.23;83.95;99964.63;5052130;28;20348;-73
2022/02/08 06:34:46;;;;;;;;;;;;;;;1.18;84.36;99964.16;5091243;28;20328;-71
2022/02/08 06:37:39;;;;;;;;;;;;;;;1.23;84.21;99964.63;5073091;28;19975;-70
2022/02/08 06:40:04;;;;;;;;;;;;;;;1.29;84.08;99965.91;5051298;28;19921;-72
2022/02/08 06:42:30;;;;;;;;;;;;;;;1.29;84.00;99966.75;5053576;28;20090;-69
2022/02/08 06:44:58;;;;;;;;;;;;;;;1.28;83.93;99962.47;5051601;28;19924;-72
2022/02/08 06:47:24;;;;;;;;;;;;;;;1.31;83.78;99954.34;5052597;28;19916;-71
2022/02/08 06:49:50;;;;;;;;;;;;;;;1.31;83.16;99956.97;5072684;28;19916;-70
2022/02/08 06:52:16;;;;;;;;;;;;;;;1.23;82.92;99956.75;5073089;28;19971;-69
2022/02/08 06:54:41;;;;;;;;;;;;;;;1.14;83.21;99953.06;5034647;28;19967;-72
2022/02/08 06:57:06;;;;;;;;;;;;;;;1.12;83.35;99959.38;5051116;28;19921;-72
2022/02/08 06:59:37;;;;;;;;;;;;;;;1.13;83.59;99963.66;5071446;28;19920;-71
2022/02/08 07:02:03;;;;;;;;;;;;;;;1.18;83.28;99966.78;5050856;28;19923;-73
2022/02/08 07:04:28;;;;;;;;;;;;;;;1.22;83.20;99965.59;5070985;28;19916;-74
2022/02/08 07:06:54;;;;;;;;;;;;;;;1.24;83.44;99963.66;5072247;28;20022;-73
2022/02/08 07:09:19;;;;;;;;;;;;;;;1.25;83.29;99962.72;5071768;28;19923;-72
2022/02/08 07:11:47;;;;;;;;;;;;;;;1.23;83.05;99962.84;5072180;28;19969;-72
2022/02/08 07:14:12;;;;;;;;;;;;;;;1.23;83.24;99959.38;5051175;28;19916;-66
2022/02/08 07:16:38;;;;;;;;;;;;;;;1.21;82.71;99963.91;5071875;28;19938;-66
2022/02/08 07:19:03;;;;;;;;;;;;;;;1.18;83.02;99961.53;5072627;28;19917;-65
2022/02/08 07:21:28;;;;;;;;;;;;;;;1.16;83.24;99963.44;5071768;28;20336;-70
2022/02/08 07:23:54;;;;;;;;;;;;;;;1.21;83.32;99956.88;5050731;28;19920;-69
2022/02/08 07:26:19;;;;;;;;;;;;;;;1.34;83.30;99961.97;5051840;28;20356;-71
2022/02/08 07:28:45;;;;;;;;;;;;;;;1.39;82.91;99959.78;5071412;28;20303;-65
2022/02/08 07:31:19;;;;;;;;;;;;;;;1.44;82.59;99965.50;5070713;28;19917;-70
2022/02/08 07:34:03;;;;;;;;;;;;;;;1.46;82.88;99968.03;5049258;28;19916;-60
2022/02/08 07:39:11;;;;;;;;;;;;;;;1.45;82.86;99967.19;5071938;28;20006;-65
2022/02/08 07:41:40;;;;;;;;;;;;;;;1.49;82.90;99963.38;5053827;28;20424;-67
2022/02/08 07:44:09;;;;;;;;;;;;;;;1.52;82.64;99971.00;5072490;28;19923;-69
2022/02/08 07:46:35;;;;;;;;;;;;;;;1.50;82.58;99965.03;5072004;28;19917;-69
2022/02/08 07:49:03;;;;;;;;;;;;;;;1.52;82.41;99968.38;5071745;28;19916;-65
2022/02/08 07:51:28;;;;;;;;;;;;;;;1.51;82.85;99965.88;5052042;28;19916;-69
2022/02/08 07:53:55;;;;;;;;;;;;;;;1.48;82.57;99977.44;5070957;28;19927;-63
2022/02/08 07:56:20;;;;;;;;;;;;;;;1.45;82.66;99979.50;5071529;28;19916;-67
2022/02/08 07:58:45;;;;;;;;;;;;;;;1.45;82.59;99988.19;5071290;28;19939;-63
2022/02/08 08:01:11;;;;;;;;;;;;;;;1.45;82.43;99982.13;5071906;28;19962;-63
2022/02/08 08:03:42;;;;;;;;;;;;;;;1.45;82.36;99990.81;5071678;28;20348;-63
2022/02/08 08:06:09;;;;;;;;;;;;;;;1.42;82.42;99993.66;5083888;28;19929;-73
2022/02/08 08:08:34;;;;;;;;;;;;;;;1.37;81.99;99994.97;5053780;28;20006;-65
2022/02/08 08:11:00;;;;;;;;;;;;;;;1.36;82.05;99994.16;5071133;28;20011;-65
2022/02/08 08:13:27;;;;;;;;;;;;;;;1.37;81.90;99987.13;5071376;28;19916;-65
2022/02/08 08:15:59;;;;;;;;;;;;;;;1.41;82.11;99986.75;5071811;28;19920;-65
2022/02/08 08:18:45;;;;;;;;;;;;;;;1.40;81.54;99987.69;5073323;28;19952;-68
2022/02/08 08:21:10;;;;;;;;;;;;;;;1.43;81.91;99995.31;5074289;28;19923;-64
2022/02/08 08:23:35;;;;;;;;;;;;;;;1.46;81.96;99992.47;5057037;28;19920;-68
2022/02/08 08:26:01;;;;;;;;;;;;;;;1.49;81.60;99994.03;5073573;28;19962;-66
2022/02/08 08:28:26;;;;;;;;;;;;;;;1.47;81.12;100001.19;5061984;28;19924;-66
2022/02/08 08:30:51;;;;;;;;;;;;;;;1.36;81.43;100004.66;5074835;28;20457;-64
2022/02/08 08:33:17;;;;;;;;;;;;;;;1.36;81.51;100006.44;5074502;28;19928;-63
2022/02/08 08:35:44;;;;;;;;;;;;;;;1.32;81.83;100008.47;5060056;28;19974;-64
2022/02/08 08:38:15;;;;;;;;;;;;;;;1.30;81.80;100010.38;5073436;28;19924;-66
2022/02/08 08:40:48;;;;;;;;;;;;;;;1.32;81.52;100008.47;5074683;28;20326;-69
2022/02/08 08:43:40;;;;;;;;;;;;;;;1.27;81.75;100010.63;5081255;28;20015;-69
2022/02/08 08:51:44;;;;;;;;;;;;;;;1.16;81.18;100002.78;5115005;28;20396;-68
2022/02/08 08:54:10;;;;;;;;;;;;;;;1.17;81.37;100004.47;5113004;28;19919;-69
2022/02/08 08:56:40;;;;;;;;;;;;;;;1.21;81.51;99990.97;5095628;28;20405;-71
2022/02/08 08:59:06;;;;;;;;;;;;;;;1.17;81.12;100002.66;5114814;28;20413;-67
2022/02/08 09:01:31;;;;;;;;;;;;;;;1.23;81.11;99996.09;5114533;28;19915;-71
2022/02/08 09:03:57;;;;;;;;;;;;;;;1.26;81.06;100008.97;5115128;28;19920;-71
2022/02/08 09:06:22;;;;;;;;;;;;;;;1.23;81.05;100010.03;5115064;28;19993;-72
2022/02/08 09:08:48;;;;;;;;;;;;;;;1.26;81.03;100016.84;5095990;28;19916;-70
2022/02/08 09:11:29;;;;;;;;;;;;;;;1.26;80.67;100008.97;5115058;28;19916;-73
2022/02/08 09:16:43;;;;;;;;;;;;;;;1.34;80.78;100011.81;5097223;28;20366;-69
2022/02/08 09:29:20;;;;;;;;;;;;;;;1.44;79.78;100015.34;5096909;28;20014;-70
2022/02/08 09:31:47;;;;;;;;;;;;;;;1.48;79.89;100022.06;5113963;28;19916;-70
2022/02/08 09:34:13;;;;;;;;;;;;;;;1.46;79.13;100016.09;5095697;28;19950;-72
2022/02/08 09:36:41;;;;;;;;;;;;;;;1.40;78.92;100016.56;5114280;28;19958;-70
2022/02/08 09:39:07;;;;;;;;;;;;;;;1.36;78.58;100019.56;5114912;28;20293;-71
2022/02/08 09:41:34;;;;;;;;;;;;;;;1.33;78.95;100025.03;5115255;28;19915;-69
2022/02/08 09:44:02;;;;;;;;;;;;;;;1.35;79.33;100026.59;5114858;28;19915;-69
2022/02/08 09:46:28;;;;;;;;;;;;;;;1.41;79.42;100023.47;5113920;28;19919;-70
2022/02/08 09:48:56;;;;;;;;;;;;;;;1.51;79.32;100018.34;5095659;28;19939;-69
2022/02/08 09:51:23;;;;;;;;;;;;;;;1.46;77.76;100023.97;5095752;28;19923;-69
2022/02/08 09:53:49;;;;;;;;;;;;;;;1.49;78.01;100026.34;5114347;28;19919;-69
2022/02/08 09:56:39;;;;;;;;;;;;;;;1.38;76.61;100034.22;5114303;28;19962;-69
2022/02/08 09:59:05;;;;;;;;;;;;;;;1.24;77.00;100034.50;5095687;28;19959;-71
2022/02/08 10:01:30;;;;;;;;;;;;;;;1.10;76.24;100018.97;5095633;28;20270;-70
2022/02/08 10:03:56;;;;;;;;;;;;;;;1.08;76.84;100026.97;5078929;28;20377;-72
2022/02/08 10:06:24;;;;;;;;;;;;;;;0.99;76.93;100026.88;5095843;28;19960;-69
2022/02/08 10:08:58;;;;;;;;;;;;;;;0.99;76.75;100032.09;5113851;28;19969;-70
2022/02/08 10:11:29;;;;;;;;;;;;;;;0.95;76.92;100030.69;5114004;28;20481;-69
2022/02/08 10:14:17;;;;;;;;;;;;;;;0.93;76.81;100039.50;5113723;28;19949;-71
2022/02/08 10:20:12;;;;;;;;;;;;;;;0.94;76.23;100045.59;5113770;28;19972;-70
2022/02/08 10:22:31;;;;;;;;;;;;;;;0.87;76.26;100039.97;5113443;28;19955;-69
2022/02/08 10:24:59;;;;;;;;;;;;;;;0.86;76.38;100040.91;5096346;28;19915;-69
2022/02/08 10:27:37;;;;;;;;;;;;;;;0.95;76.69;100043.78;5114915;28;20014;-71
2022/02/08 10:38:21;;;;;;;;;;;;;;;1.29;75.94;100049.84;5113280;28;19965;-70
2022/02/08 10:40:47;;;;;;;;;;;;;;;1.41;76.41;100057.59;5112981;28;20000;-70
2022/02/08 10:43:15;;;;;;;;;;;;;;;1.44;75.95;100049.47;5094326;28;20317;-72
2022/02/08 10:45:41;;;;;;;;;;;;;;;1.44;75.45;100057.34;5077971;28;19981;-70
2022/02/08 10:48:10;;;;;;;;;;;;;;;1.35;75.18;100059.88;5113085;28;20417;-71
2022/02/08 10:50:39;;;;;;;;;;;;;;;1.36;75.33;100051.03;5094901;28;20335;-70
2022/02/08 10:53:06;;;;;;;;;;;;;;;1.47;75.92;100048.41;5112759;28;20351;-70
2022/02/08 10:55:41;;;;;;;;;;;;;;;1.64;75.97;100052.31;5112523;28;19920;-71
2022/02/08 10:58:26;;;;;;;;;;;;;;;1.72;74.94;100053.34;5094884;28;20018;-70
2022/02/08 11:01:01;;;;;;;;;;;;;;;1.78;75.28;100050.25;5094802;28;19916;-72
2022/02/08 11:03:35;;;;;;;;;;;;;;;1.77;74.97;100056.47;5113253;28;20313;-70
2022/02/08 11:08:59;;;;;;;;;;;;;;;1.52;74.13;100056.75;5113841;28;19937;-71
2022/02/08 11:14:12;;;;;;;;;;;;;;;1.41;75.45;100060.22;5092172;28;20375;-71
2022/02/08 11:17:36;;;;;;;;;;;;;;;1.37;75.46;100061.41;5073796;28;19923;-70
2022/02/08 11:25:13;;;;;;;;;;;;;;;1.32;76.30;100066.19;5112167;28;20313;-63
2022/02/08 11:27:46;;;;;;;;;;;;;;;1.38;76.59;100070.94;5112435;28;19915;-65
2022/02/08 11:30:16;;;;;;;;;;;;;;;1.40;76.84;100066.41;5112405;28;19954;-68
2022/02/08 11:33:15;;;;;;;;;;;;;;;1.28;76.46;100070.00;5112391;28;19957;-69
2022/02/08 11:50:37;;;;;;;;;;;;;;;1.02;75.23;100064.16;5112032;28;20350;-64
2022/02/08 11:52:46;;;;;;;;;;;;;;;1.12;74.71;100065.13;5098639;28;20077;-67
2022/02/08 12:00:24;;;;;;;;;;;;;;;1.30;73.55;100069.88;5097686;28;19920;-68
2022/02/08 12:03:14;;;;;;;;;;;;;;;1.42;73.99;100075.00;5115833;28;20284;-66
2022/02/08 12:05:49;;;;;;;;;;;;;;;1.46;73.80;100079.06;5115321;28;19964;-65
2022/02/08 12:08:16;;;;;;;;;;;;;;;1.50;73.44;100079.66;5102558;28;19915;-65
2022/02/08 12:11:14;;;;;;;;;;;;;;;1.41;72.38;100086.44;5095001;28;19970;-72
2022/02/08 12:27:06;;;;;;;;;;;;;;;1.35;72.62;100083.47;5093511;28;20294;-72
2022/02/08 12:35:29;;;;;;;;;;;;;;;1.07;72.87;100095.28;5083341;28;20019;-70
2022/02/08 12:55:34;;;;;;;;;;;;;;;0.96;72.32;100111.84;5074840;28;19922;-68
2022/02/08 12:57:47;;;;;;;;;;;;;;;0.93;72.81;100118.16;5056593;28;20401;-66
2022/02/08 13:06:04;;;;;;;;;;;;;;;0.76;73.20;100113.34;5055232;28;19935;-70
2022/02/08 14:06:42;;;;;;;;;;;;;;;0.23;78.12;100099.84;5093642;28;19916;-65
2022/02/08 14:11:50;;;;;;;;;;;;;;;0.11;78.36;100090.28;5092981;28;19916;-71
2022/02/08 14:19:41;;;;;;;;;;;;;;;0.03;77.90;100089.16;5087865;28;20014;-66
2022/02/08 15:10:50;;;;;;;;;;;;;;;0.00;77.72;100085.00;5092727;28;19971;-73
2022/02/08 15:13:18;;;;;;;;;;;;;;;-0.01;77.02;100080.69;5092564;28;20018;-74
2022/02/08 15:18:29;;;;;;;;;;;;;;;-0.10;77.74;100078.75;5092941;28;20367;-71
2022/02/08 15:20:55;;;;;;;;;;;;;;;-0.12;77.60;100072.78;5092523;28;19932;-74
2022/02/08 15:23:21;;;;;;;;;;;;;;;-0.10;77.40;100069.09;5092613;28;19916;-73
2022/02/08 15:25:48;;;;;;;;;;;;;;;-0.13;77.90;100069.34;5092351;28;19961;-74
2022/02/08 15:28:14;;;;;;;;;;;;;;;-0.18;77.40;100075.84;5092139;28;19922;-69
2022/02/08 15:30:41;;;;;;;;;;;;;;;-0.25;77.43;100070.22;5094503;28;20031;-74
2022/02/08 15:33:09;;;;;;;;;;;;;;;-0.37;77.28;100071.09;5096641;28;19954;-72
2022/02/08 15:35:39;;;;;;;;;;;;;;;-0.49;77.61;100072.81;5095957;28;20286;-67
2022/02/08 15:38:05;;;;;;;;;;;;;;;-0.57;78.28;100074.31;5096474;28;19967;-68
2022/02/08 15:40:34;;;;;;;;;;;;;;;-0.60;78.21;100075.34;5096418;28;20370;-67
2022/02/08 15:43:00;;;;;;;;;;;;;;;-0.62;78.13;100069.38;5096174;28;19920;-71
2022/02/08 15:45:30;;;;;;;;;;;;;;;-0.68;78.46;100070.66;5096803;28;19916;-69
2022/02/08 15:47:58;;;;;;;;;;;;;;;-0.66;78.74;100066.16;5098969;28;19947;-71
2022/02/08 15:53:24;;;;;;;;;;;;;;;-0.66;78.72;100066.16;5096709;28;19994;-72
2022/02/08 15:56:17;;;;;;;;;;;;;;;-0.70;78.84;100062.09;5094899;28;19971;-72
2022/02/08 16:19:34;;;;;;;;;;;;;;;-0.77;79.21;100041.72;5095298;28;19916;-69
2022/02/08 16:49:23;;;;;;;;;;;;;;;0.29;76.67;100030.47;5093604;28;19923;-69
2022/02/08 16:59:11;;;;;;;;;;;;;;;0.10;75.38;100017.06;5095170;28;19920;-69
2022/02/08 17:01:37;;;;;;;;;;;;;;;0.04;75.17;100012.31;5076299;28;20328;-70
2022/02/08 17:04:05;;;;;;;;;;;;;;;0.03;75.81;100018.50;5095294;28;19916;-72
2022/02/08 17:06:34;;;;;;;;;;;;;;;0.02;75.25;100019.44;5096843;28;19916;-75
2022/02/08 17:09:06;;;;;;;;;;;;;;;0.04;75.90;100015.75;5097083;28;20086;-73
2022/02/08 17:12:00;;;;;;;;;;;;;;;0.03;75.80;100021.94;5077375;28;19923;-64
2022/02/08 17:14:46;;;;;;;;;;;;;;;0.02;75.46;100014.19;5077080;28;19915;-65
2022/02/08 17:47:02;;;;;;;;;;;;;;;-0.04;76.02;100005.81;5093478;28;19970;-69
2022/02/08 17:49:27;;;;;;;;;;;;;;;-0.12;75.84;99989.03;5093231;28;19923;-70
2022/02/08 17:51:53;;;;;;;;;;;;;;;-0.07;76.18;99989.53;5074360;28;19916;-69
2022/02/08 17:54:19;;;;;;;;;;;;;;;-0.10;75.42;99987.13;5074240;28;19916;-71
2022/02/08 17:56:45;;;;;;;;;;;;;;;-0.21;76.09;99987.09;5091718;28;19963;-73
2022/02/08 17:59:10;;;;;;;;;;;;;;;-0.21;76.28;99987.94;5096221;28;19919;-73
2022/02/08 18:01:36;;;;;;;;;;;;;;;-0.25;76.86;99996.97;5078257;28;19948;-68
2022/02/08 18:04:01;;;;;;;;;;;;;;;-0.27;76.21;99998.84;5073730;28;20410;-73
2022/02/08 18:06:28;;;;;;;;;;;;;;;-0.25;76.56;100002.19;5074308;28;19923;-73
2022/02/08 18:08:54;;;;;;;;;;;;;;;-0.19;76.52;100004.34;5055794;28;19917;-71
2022/02/08 18:11:22;;;;;;;;;;;;;;;-0.21;75.96;100014.09;5073802;28;19920;-72
2022/02/08 18:13:49;;;;;;;;;;;;;;;-0.31;75.91;100016.53;5055362;28;20345;-69
2022/02/08 18:16:15;;;;;;;;;;;;;;;-0.42;76.02;100013.88;5073465;28;19961;-70
2022/02/08 18:18:43;;;;;;;;;;;;;;;-0.45;76.02;100008.03;5073682;28;20011;-61
2022/02/08 18:21:21;;;;;;;;;;;;;;;-0.44;75.63;100007.09;5072595;28;19962;-65
2022/02/08 18:24:23;;;;;;;;;;;;;;;-0.50;76.12;100012.75;5054850;28;19939;-69
2022/02/08 18:58:02;;;;;;;;;;;;;;;-0.29;76.47;99997.28;5052875;28;19924;-69
2022/02/08 19:11:45;;;;;;;;;;;;;;;-0.08;75.77;100004.38;5053052;28;19920;-70
2022/02/08 19:21:45;;;;;;;;;;;;;;;-0.37;76.04;100014.38;5042891;28;19916;-70
2022/02/08 19:24:12;;;;;;;;;;;;;;;-0.29;76.25;100010.34;5031035;28;19917;-69
2022/02/08 19:26:38;;;;;;;;;;;;;;;-0.25;75.93;100012.66;5034486;28;19935;-70
2022/02/08 19:29:03;;;;;;;;;;;;;;;-0.23;75.44;100009.94;5052589;28;19925;-68
2022/02/08 19:31:29;;;;;;;;;;;;;;;-0.22;75.87;100009.81;5052124;28;19917;-68
2022/02/08 19:33:55;;;;;;;;;;;;;;;-0.20;74.95;100014.94;5052718;28;19916;-69
2022/02/08 19:36:21;;;;;;;;;;;;;;;-0.22;75.24;100006.38;5052011;28;20386;-70
2022/02/08 19:38:49;;;;;;;;;;;;;;;-0.14;75.55;100001.41;5067799;28;19924;-67
2022/02/08 19:41:15;;;;;;;;;;;;;;;-0.19;75.55;99996.50;5051030;28;19966;-69
2022/02/08 19:43:41;;;;;;;;;;;;;;;-0.19;75.53;99995.66;5072196;28;19928;-68
2022/02/08 19:46:06;;;;;;;;;;;;;;;-0.29;75.08;99999.88;5075716;28;19923;-72
2022/02/08 19:48:32;;;;;;;;;;;;;;;-0.50;75.46;99997.06;5056522;28;19916;-67
2022/02/08 19:50:57;;;;;;;;;;;;;;;-0.58;76.21;100008.06;5076342;28;19984;-69
2022/02/08 19:53:22;;;;;;;;;;;;;;;-0.56;76.14;100007.97;5052717;28;19924;-67
2022/02/08 19:56:27;;;;;;;;;;;;;;;-0.59;76.23;100006.41;5071731;28;19963;-69
2022/02/08 19:58:39;;;;;;;;;;;;;;;-0.76;76.90;100015.47;5045189;28;19916;-70
2022/02/08 20:01:11;;;;;;;;;;;;;;;-0.74;76.91;100010.13;5066975;28;20389;-69
2022/02/08 20:03:43;;;;;;;;;;;;;;;-0.65;76.92;100012.06;5069513;28;19923;-67
2022/02/08 20:06:09;;;;;;;;;;;;;;;-0.58;76.73;100010.69;5072550;28;19928;-68
2022/02/08 20:08:35;;;;;;;;;;;;;;;-0.48;76.59;100011.72;5073776;28;19927;-67
2022/02/08 20:11:01;;;;;;;;;;;;;;;-0.47;76.52;100007.31;5055564;28;20011;-70
2022/02/08 20:13:27;;;;;;;;;;;;;;;-0.53;76.33;100005.97;5057610;28;19917;-71
2022/02/08 20:15:53;;;;;;;;;;;;;;;-0.66;76.71;100007.78;5075230;28;19961;-67
2022/02/08 20:18:20;;;;;;;;;;;;;;;-0.62;77.01;100010.06;5054418;28;19923;-70
2022/02/08 20:20:48;;;;;;;;;;;;;;;-0.57;76.75;100015.00;5075583;28;19916;-70
2022/02/08 20:23:16;;;;;;;;;;;;;;;-0.54;76.89;100012.16;5038207;28;19995;-68
2022/02/08 20:25:53;;;;;;;;;;;;;;;-0.61;76.96;100005.66;5069579;28;19916;-68
2022/02/08 20:28:25;;;;;;;;;;;;;;;-0.62;77.09;100004.00;5076425;28;20069;-66
2022/02/08 20:30:52;;;;;;;;;;;;;;;-0.57;76.97;100007.16;5074941;28;19917;-67
2022/02/08 20:33:18;;;;;;;;;;;;;;;-0.54;76.95;100000.88;5074783;28;20379;-69
2022/02/08 20:35:44;;;;;;;;;;;;;;;-0.54;76.83;100001.69;5074782;28;19923;-68
2022/02/08 20:38:14;;;;;;;;;;;;;;;-0.54;76.51;100001.69;5074330;28;19920;-68
2022/02/08 20:40:40;;;;;;;;;;;;;;;-0.66;76.19;100002.56;5066676;28;19926;-70
2022/02/08 20:43:09;;;;;;;;;;;;;;;-0.72;76.78;100003.84;5074166;28;20303;-67
2022/02/08 20:45:36;;;;;;;;;;;;;;;-0.71;76.49;100002.06;5056503;28;19927;-68
2022/02/08 20:48:02;;;;;;;;;;;;;;;-0.63;77.17;99997.94;5074768;28;19916;-70